sensor_id;sensor_type;location;lat;lon;timestamp;pressure;altitude;pressure_sealevel;temperature;humidity
38191;BME280;25191;47.510;19.124;2023-01-16T00:06:36;99655.59;;;21.31;56.26
38191;BME280;25191;47.510;19.124;2023-01-16T00:16:36;99649.66;;;21.29;56.21
38191;BME280;25191;47.510;19.124;2023-01-16T00:26:37;99651.44;;;21.28;55.96
38191;BME280;25191;47.510;19.124;2023-01-16T00:36:37;99632.31;;;21.26;56.02
38191;BME280;25191;47.510;19.124;2023-01-16T00:46:40;99626.34;;;21.24;55.85
38191;BME280;25191;47.510;19.124;2023-01-16T00:56:41;99625.66;;;21.22;55.88
38191;BME280;25191;47.510;19.124;2023-01-16T01:06:41;99620.38;;;21.22;56.19
38191;BME280;25191;47.510;19.124;2023-01-16T01:16:42;99615.28;;;21.21;55.87
38191;BME280;25191;47.510;19.124;2023-01-16T01:26:42;99609.28;;;21.19;55.99
38191;BME280;25191;47.510;19.124;2023-01-16T01:36:42;99596.13;;;21.19;55.97
38191;BME280;25191;47.510;19.124;2023-01-16T01:46:45;99577.16;;;21.15;56.23
38191;BME280;25191;47.510;19.124;2023-01-16T01:56:52;99589.50;;;21.15;56.16
38191;BME280;25191;47.510;19.124;2023-01-16T02:06:55;99580.63;;;21.16;55.94
38191;BME280;25191;47.510;19.124;2023-01-16T02:17:07;99572.03;;;21.14;55.85
38191;BME280;25191;47.510;19.124;2023-01-16T02:37:55;99536.56;;;21.08;56.02
38191;BME280;25191;47.510;19.124;2023-01-16T02:58:11;99525.34;;;21.06;55.97
38191;BME280;25191;47.510;19.124;2023-01-16T03:19:11;99465.09;;;21.03;55.79
38191;BME280;25191;47.510;19.124;2023-01-16T03:29:59;99464.41;;;21.01;55.75
38191;BME280;25191;47.510;19.124;2023-01-16T03:40:10;99468.81;;;21.00;55.53
38191;BME280;25191;47.510;19.124;2023-01-16T03:50:13;99437.41;;;20.99;55.92
38191;BME280;25191;47.510;19.124;2023-01-16T04:00:15;99427.84;;;20.98;55.76
38191;BME280;25191;47.510;19.124;2023-01-16T04:10:19;99412.19;;;20.96;56.09
38191;BME280;25191;47.510;19.124;2023-01-16T04:20:22;99381.59;;;20.95;55.96
38191;BME280;25191;47.510;19.124;2023-01-16T04:30:23;99372.03;;;20.94;55.73
38191;BME280;25191;47.510;19.124;2023-01-16T04:40:24;99361.66;;;20.92;55.53
38191;BME280;25191;47.510;19.124;2023-01-16T04:50:25;99351.13;;;20.92;55.61
38191;BME280;25191;47.510;19.124;2023-01-16T05:00:25;99350.97;;;20.94;55.57
38191;BME280;25191;47.510;19.124;2023-01-16T05:10:25;99342.09;;;20.95;56.02
38191;BME280;25191;47.510;19.124;2023-01-16T05:20:26;99318.28;;;20.97;57.06
38191;BME280;25191;47.510;19.124;2023-01-16T05:30:26;99323.50;;;21.06;58.14
38191;BME280;25191;47.510;19.124;2023-01-16T05:40:27;99337.59;;;21.15;57.56
38191;BME280;25191;47.510;19.124;2023-01-16T05:50:27;99330.78;;;21.22;57.56
38191;BME280;25191;47.510;19.124;2023-01-16T06:00:28;99334.34;;;21.31;57.02
38191;BME280;25191;47.510;19.124;2023-01-16T06:10:28;99331.31;;;21.26;51.25
38191;BME280;25191;47.510;19.124;2023-01-16T06:20:29;99322.03;;;21.32;54.29
38191;BME280;25191;47.510;19.124;2023-01-16T06:30:29;99311.72;;;21.38;55.17
38191;BME280;25191;47.510;19.124;2023-01-16T06:40:29;99289.78;;;21.48;55.84
38191;BME280;25191;47.510;19.124;2023-01-16T06:50:31;99280.91;;;21.49;54.05
38191;BME280;25191;47.510;19.124;2023-01-16T07:00:31;99286.31;;;21.57;55.48
38191;BME280;25191;47.510;19.124;2023-01-16T07:10:33;99287.66;;;21.61;55.31
38191;BME280;25191;47.510;19.124;2023-01-16T07:20:33;99289.00;;;21.65;55.25
38191;BME280;25191;47.510;19.124;2023-01-16T07:30:52;99286.78;;;21.70;56.00
38191;BME280;25191;47.510;19.124;2023-01-16T07:40:53;99266.34;;;21.72;55.40
38191;BME280;25191;47.510;19.124;2023-01-16T07:50:56;99260.81;;;21.75;55.50
38191;BME280;25191;47.510;19.124;2023-01-16T08:00:57;99241.22;;;21.78;55.74
38191;BME280;25191;47.510;19.124;2023-01-16T08:10:59;99213.06;;;21.79;55.14
38191;BME280;25191;47.510;19.124;2023-01-16T08:21:20;99178.81;;;21.79;55.11
38191;BME280;25191;47.510;19.124;2023-01-16T08:31:20;99167.00;;;21.83;54.94
38191;BME280;25191;47.510;19.124;2023-01-16T08:41:21;99151.03;;;21.84;54.96
38191;BME280;25191;47.510;19.124;2023-01-16T08:51:40;99127.47;;;21.83;54.44
38191;BME280;25191;47.510;19.124;2023-01-16T09:01:41;99098.63;;;21.81;53.91
38191;BME280;25191;47.510;19.124;2023-01-16T09:11:42;99077.69;;;21.80;54.18
38191;BME280;25191;47.510;19.124;2023-01-16T09:22:03;99040.00;;;21.79;54.13
38191;BME280;25191;47.510;19.124;2023-01-16T09:32:08;99019.91;;;21.78;55.07
38191;BME280;25191;47.510;19.124;2023-01-16T09:42:40;98992.72;;;21.78;54.11
38191;BME280;25191;47.510;19.124;2023-01-16T09:53:08;98954.34;;;21.49;49.71
38191;BME280;25191;47.510;19.124;2023-01-16T10:03:29;98940.94;;;21.60;52.92
38191;BME280;25191;47.510;19.124;2023-01-16T10:24:02;98892.22;;;21.64;54.11
38191;BME280;25191;47.510;19.124;2023-01-16T10:34:21;98869.50;;;21.71;54.00
38191;BME280;25191;47.510;19.124;2023-01-16T10:54:49;98825.88;;;21.61;50.07
38191;BME280;25191;47.510;19.124;2023-01-16T11:04:52;98800.19;;;21.63;50.23
38191;BME280;25191;47.510;19.124;2023-01-16T11:14:52;98781.91;;;21.61;51.21
38191;BME280;25191;47.510;19.124;2023-01-16T11:25:15;98756.56;;;21.60;51.29
38191;BME280;25191;47.510;19.124;2023-01-16T11:35:18;98732.84;;;21.60;52.59
38191;BME280;25191;47.510;19.124;2023-01-16T11:45:22;98719.69;;;21.60;52.59
38191;BME280;25191;47.510;19.124;2023-01-16T12:26:36;98602.00;;;21.61;52.96
38191;BME280;25191;47.510;19.124;2023-01-16T13:18:03;98525.94;;;21.66;52.89
38191;BME280;25191;47.510;19.124;2023-01-16T13:49:03;98515.41;;;21.66;52.76
38191;BME280;25191;47.510;19.124;2023-01-16T13:59:05;98508.13;;;21.68;53.14
38191;BME280;25191;47.510;19.124;2023-01-16T14:19:22;98482.81;;;21.67;52.32
38191;BME280;25191;47.510;19.124;2023-01-16T14:29:26;98464.38;;;21.67;52.87
38191;BME280;25191;47.510;19.124;2023-01-16T14:39:39;98435.53;;;21.65;52.74
38191;BME280;25191;47.510;19.124;2023-01-16T15:00:16;98398.84;;;21.64;50.95
38191;BME280;25191;47.510;19.124;2023-01-16T15:20:38;98367.91;;;21.57;52.36
38191;BME280;25191;47.510;19.124;2023-01-16T15:30:59;98348.69;;;21.57;52.72
38191;BME280;25191;47.510;19.124;2023-01-16T15:41:02;98361.84;;;21.57;53.11
38191;BME280;25191;47.510;19.124;2023-01-16T15:51:08;98320.19;;;21.52;52.61
38191;BME280;25191;47.510;19.124;2023-01-16T16:01:09;98333.97;;;21.54;52.86
38191;BME280;25191;47.510;19.124;2023-01-16T16:11:18;98326.06;;;21.54;52.98
38191;BME280;25191;47.510;19.124;2023-01-16T16:21:44;98325.28;;;21.54;52.43
38191;BME280;25191;47.510;19.124;2023-01-16T16:32:11;98307.03;;;21.52;52.21
38191;BME280;25191;47.510;19.124;2023-01-16T16:52:30;98261.97;;;21.47;52.39
38191;BME280;25191;47.510;19.124;2023-01-16T17:02:33;98267.84;;;21.49;52.59
38191;BME280;25191;47.510;19.124;2023-01-16T17:12:34;98269.69;;;21.49;52.63
38191;BME280;25191;47.510;19.124;2023-01-16T17:22:39;98261.13;;;21.47;52.83
38191;BME280;25191;47.510;19.124;2023-01-16T17:32:39;98263.75;;;21.47;52.92
38191;BME280;25191;47.510;19.124;2023-01-16T17:42:41;98265.22;;;21.49;52.95
38191;BME280;25191;47.510;19.124;2023-01-16T17:52:59;98265.69;;;21.53;52.85
38191;BME280;25191;47.510;19.124;2023-01-16T18:03:00;98243.34;;;21.49;52.88
38191;BME280;25191;47.510;19.124;2023-01-16T18:13:01;98240.53;;;21.50;53.63
38191;BME280;25191;47.510;19.124;2023-01-16T18:23:21;98214.38;;;21.49;53.75
38191;BME280;25191;47.510;19.124;2023-01-16T18:33:22;98209.94;;;21.49;54.04
38191;BME280;25191;47.510;19.124;2023-01-16T18:43:23;98215.84;;;21.51;54.27
38191;BME280;25191;47.510;19.124;2023-01-16T18:53:47;98191.50;;;21.49;54.69
38191;BME280;25191;47.510;19.124;2023-01-16T19:04:07;98207.47;;;21.48;55.15
38191;BME280;25191;47.510;19.124;2023-01-16T19:14:09;98201.41;;;21.47;55.21
38191;BME280;25191;47.510;19.124;2023-01-16T19:24:14;98193.50;;;21.47;54.78
38191;BME280;25191;47.510;19.124;2023-01-16T19:34:16;98182.97;;;21.47;54.37
38191;BME280;25191;47.510;19.124;2023-01-16T19:44:17;98171.97;;;21.43;54.43
38191;BME280;25191;47.510;19.124;2023-01-16T19:54:36;98175.91;;;21.39;54.20
38191;BME280;25191;47.510;19.124;2023-01-16T20:04:40;98176.56;;;21.41;54.16
38191;BME280;25191;47.510;19.124;2023-01-16T20:14:41;98162.50;;;21.26;52.47
38191;BME280;25191;47.510;19.124;2023-01-16T20:24:42;98177.50;;;21.25;52.74
38191;BME280;25191;47.510;19.124;2023-01-16T20:34:43;98163.97;;;21.28;52.58
38191;BME280;25191;47.510;19.124;2023-01-16T20:44:44;98148.19;;;21.28;53.00
38191;BME280;25191;47.510;19.124;2023-01-16T20:55:04;98154.91;;;21.31;53.39
38191;BME280;25191;47.510;19.124;2023-01-16T21:05:05;98131.41;;;21.30;53.01
38191;BME280;25191;47.510;19.124;2023-01-16T21:15:05;98114.78;;;21.29;53.23
38191;BME280;25191;47.510;19.124;2023-01-16T21:25:07;98119.22;;;21.28;53.23
38191;BME280;25191;47.510;19.124;2023-01-16T21:35:09;98134.22;;;21.28;53.29
38191;BME280;25191;47.510;19.124;2023-01-16T21:45:12;98130.94;;;21.26;53.45
38191;BME280;25191;47.510;19.124;2023-01-16T21:55:31;98133.56;;;21.26;53.60
38191;BME280;25191;47.510;19.124;2023-01-16T22:05:33;98124.00;;;21.25;54.06
38191;BME280;25191;47.510;19.124;2023-01-16T22:15:38;98142.81;;;21.22;54.60
38191;BME280;25191;47.510;19.124;2023-01-16T22:25:59;98141.97;;;21.21;54.14
38191;BME280;25191;47.510;19.124;2023-01-16T22:36:02;98130.44;;;21.22;53.95
38191;BME280;25191;47.510;19.124;2023-01-16T22:46:02;98126.19;;;21.21;54.31
38191;BME280;25191;47.510;19.124;2023-01-16T22:56:21;98124.72;;;21.19;54.50
38191;BME280;25191;47.510;19.124;2023-01-16T23:06:23;98096.94;;;21.16;54.18
38191;BME280;25191;47.510;19.124;2023-01-16T23:16:25;98073.78;;;21.11;54.66
38191;BME280;25191;47.510;19.124;2023-01-16T23:26:26;98048.63;;;21.09;54.84
38191;BME280;25191;47.510;19.124;2023-01-16T23:36:28;98048.16;;;21.05;54.64
38191;BME280;25191;47.510;19.124;2023-01-16T23:46:40;98040.44;;;21.04;54.64
38191;BME280;25191;47.510;19.124;2023-01-16T23:56:45;98030.09;;;21.02;54.75
